createdAt,value
2018-09-01T11:05:53.709Z,2.00
2018-09-01T11:08:22.143Z,2.17
2018-09-01T11:10:50.635Z,1.50
2018-09-01T11:13:19.094Z,1.30
2018-09-01T11:15:47.558Z,1.70
2018-09-01T11:18:16.010Z,1.60
2018-09-01T11:20:44.549Z,1.60
2018-09-01T11:23:12.974Z,1.27
2018-09-01T11:25:41.445Z,1.50
2018-09-01T11:28:09.945Z,1.80
2018-09-01T11:30:38.342Z,1.77
2018-09-01T11:33:06.851Z,1.77
2018-09-01T11:35:35.366Z,1.97
2018-09-01T11:38:03.836Z,1.63
2018-09-01T11:40:32.266Z,1.80
2018-09-01T11:43:00.781Z,2.50
2018-09-01T11:45:29.159Z,1.90
2018-09-01T11:47:57.589Z,1.67
2018-09-01T11:50:26.387Z,2.33
2018-09-01T11:52:54.818Z,1.90
2018-09-01T11:55:23.295Z,2.00
2018-09-01T11:57:51.719Z,1.60
2018-09-01T12:00:20.174Z,1.43
2018-09-01T12:02:48.615Z,1.37
2018-09-01T12:05:17.317Z,2.67
2018-09-01T12:07:45.782Z,2.83
2018-09-01T12:10:14.223Z,2.60
2018-09-01T12:12:42.654Z,8.20
2018-09-01T12:15:12.732Z,2.20
2018-09-01T12:17:41.211Z,1.87
2018-09-01T12:20:09.686Z,1.83
2018-09-01T12:22:38.192Z,1.63
2018-09-01T12:25:06.704Z,1.83
2018-09-01T12:27:35.170Z,1.53
2018-09-01T12:30:03.677Z,1.80
2018-09-01T12:32:32.110Z,1.30
2018-09-01T12:35:00.898Z,1.20
2018-09-01T12:37:29.384Z,1.60
2018-09-01T12:39:57.934Z,2.00
2018-09-01T12:42:26.410Z,1.60
2018-09-01T12:44:54.957Z,1.80
2018-09-01T12:47:23.392Z,1.90
2018-09-01T12:49:51.883Z,1.93
2018-09-01T12:52:20.357Z,1.43
2018-09-01T12:54:48.844Z,1.70
2018-09-01T12:57:17.356Z,1.30
2018-09-01T12:59:45.928Z,1.80
2018-09-01T13:02:19.666Z,1.20
2018-09-01T13:04:48.320Z,1.73
2018-09-01T13:07:16.890Z,1.67
2018-09-01T13:09:45.346Z,1.50
2018-09-01T13:12:14.164Z,1.63
2018-09-01T13:14:43.055Z,1.50
2018-09-01T13:17:12.335Z,1.70
2018-09-01T13:19:41.227Z,1.83
2018-09-01T13:22:09.887Z,2.00
2018-09-01T13:24:38.352Z,1.63
2018-09-01T13:27:08.007Z,1.50
2018-09-01T13:29:36.422Z,1.47
2018-09-01T13:32:04.950Z,1.50
2018-09-01T13:34:33.423Z,1.57
2018-09-01T13:37:03.466Z,1.80
2018-09-01T13:39:32.016Z,1.47
2018-09-01T13:42:00.487Z,1.40
2018-09-01T13:44:28.976Z,2.13
2018-09-01T13:46:57.419Z,1.53
2018-09-01T13:49:26.098Z,2.00
2018-09-01T13:51:54.859Z,2.00
2018-09-01T13:54:23.322Z,1.53
2018-09-01T13:56:51.772Z,1.63
2018-09-01T13:59:20.255Z,1.10
2018-09-01T14:01:48.771Z,1.37
2018-09-01T14:04:17.204Z,2.00
2018-09-01T14:06:45.666Z,1.53
2018-09-01T14:09:14.093Z,1.40
2018-09-01T14:11:42.574Z,1.57
2018-09-01T14:14:11.072Z,2.10
2018-09-01T14:16:39.591Z,1.63
2018-09-01T14:19:08.023Z,1.97
2018-09-01T14:21:37.200Z,1.40
2018-09-01T14:25:42.605Z,1.70
2018-09-01T14:28:11.091Z,1.67
2018-09-01T14:30:39.567Z,1.80
2018-09-01T14:33:08.138Z,1.77
2018-09-01T14:35:36.580Z,1.47
2018-09-01T14:38:05.199Z,1.60
2018-09-01T14:40:33.866Z,1.43
2018-09-01T14:43:02.376Z,1.77
2018-09-01T14:45:30.875Z,1.70
2018-09-01T14:48:01.506Z,1.43
2018-09-01T14:50:30.035Z,1.93
2018-09-01T14:52:58.531Z,1.40
2018-09-01T14:55:26.983Z,1.53
2018-09-01T14:57:55.450Z,1.63
2018-09-01T15:01:26.156Z,1.53
2018-09-01T15:03:54.644Z,1.40
2018-09-01T15:06:23.371Z,1.70
2018-09-01T15:08:51.832Z,1.60
2018-09-01T15:11:20.303Z,1.60
2018-09-01T15:13:48.755Z,1.47
2018-09-01T15:16:17.187Z,1.80
2018-09-01T15:18:45.805Z,1.07
2018-09-01T15:21:14.238Z,1.50
2018-09-01T15:23:42.751Z,1.63
2018-09-01T15:26:11.257Z,1.50
2018-09-01T15:28:39.827Z,1.80
2018-09-01T15:31:08.227Z,1.50
2018-09-01T15:33:36.734Z,1.33
2018-09-01T15:36:05.208Z,1.50
2018-09-01T15:38:33.725Z,1.87
2018-09-01T15:41:02.186Z,1.40
2018-09-01T15:43:30.627Z,1.67
2018-09-01T15:45:59.079Z,1.63
2018-09-01T15:48:27.816Z,1.50
2018-09-01T15:50:56.347Z,1.50
2018-09-01T15:53:24.814Z,1.80
2018-09-01T15:55:53.564Z,1.23
2018-09-01T15:58:22.036Z,1.50
2018-09-01T16:00:50.845Z,1.30
2018-09-01T16:03:19.345Z,1.70
2018-09-01T16:05:47.791Z,1.50
2018-09-01T16:08:16.304Z,1.50
2018-09-01T16:10:44.827Z,1.40
2018-09-01T16:13:13.422Z,1.33
2018-09-01T16:15:41.938Z,1.87
2018-09-01T16:18:10.485Z,1.53
2018-09-01T16:20:38.939Z,1.53
2018-09-01T16:23:07.463Z,1.43
2018-09-01T16:25:35.945Z,1.50
2018-09-01T16:28:04.497Z,1.50
2018-09-01T16:30:32.969Z,1.60
2018-09-01T16:33:01.447Z,1.80
2018-09-01T16:35:29.892Z,1.40
2018-09-01T16:37:58.374Z,1.60
2018-09-01T16:40:26.851Z,1.80
2018-09-01T16:42:55.334Z,1.70
2018-09-01T16:45:23.783Z,1.47
2018-09-01T16:47:52.244Z,1.50
2018-09-01T16:50:20.714Z,1.93
2018-09-01T16:52:49.172Z,1.37
2018-09-01T16:55:17.603Z,1.60
2018-09-01T16:57:46.063Z,1.50
2018-09-01T17:00:14.520Z,1.90
2018-09-01T17:02:43.008Z,1.37
2018-09-01T17:05:11.462Z,1.27
2018-09-01T17:07:40.242Z,1.63
2018-09-01T17:10:08.747Z,1.60
2018-09-01T17:12:37.235Z,10.17
2018-09-01T17:15:06.006Z,3.87
2018-09-01T17:17:34.515Z,1.73
2018-09-01T17:20:02.991Z,3.90
2018-09-01T17:22:31.461Z,1.70
2018-09-01T17:24:59.916Z,4.33
2018-09-01T17:27:28.379Z,15.87
2018-09-01T17:29:56.832Z,17.67
2018-09-01T17:32:25.297Z,9.80
2018-09-01T17:34:53.738Z,2.10
2018-09-01T17:37:22.172Z,25.17
2018-09-01T17:39:50.640Z,60.43
2018-09-01T17:42:21.351Z,13.33
2018-09-01T17:44:50.034Z,18.73
2018-09-01T17:47:18.488Z,7.80
2018-09-01T17:49:46.958Z,10.47
2018-09-01T17:52:15.414Z,8.20
2018-09-01T17:54:44.203Z,3.83
2018-09-01T17:57:12.678Z,6.30
2018-09-01T17:59:41.136Z,61.80
2018-09-01T18:02:10.123Z,41.87
2018-09-01T18:04:38.650Z,17.10
2018-09-01T18:07:07.151Z,9.90
2018-09-01T18:09:35.595Z,4.17
2018-09-01T18:12:04.083Z,11.60
2018-09-01T18:14:32.608Z,14.83
2018-09-01T18:17:01.050Z,50.53
2018-09-01T18:19:29.506Z,33.53
2018-09-01T18:21:57.975Z,10.43
2018-09-01T18:24:26.432Z,24.87
2018-09-01T18:26:54.900Z,17.73
2018-09-01T18:29:23.399Z,18.17
2018-09-01T18:31:51.862Z,10.40
2018-09-01T18:34:20.568Z,4.80
2018-09-01T18:36:49.043Z,16.97
2018-09-01T18:39:17.622Z,33.27
2018-09-01T18:41:46.099Z,51.87
2018-09-01T18:44:14.602Z,78.57
2018-09-01T18:46:43.448Z,73.23
2018-09-01T18:49:11.938Z,36.93
2018-09-01T18:51:40.380Z,8.00
2018-09-01T18:54:09.021Z,5.47
2018-09-01T18:56:37.570Z,6.90
2018-09-01T18:59:06.466Z,87.53
2018-09-01T19:01:34.941Z,15.00
2018-09-01T19:04:03.421Z,3.60
2018-09-01T19:06:31.945Z,2.80
2018-09-01T19:09:00.415Z,2.70
2018-09-01T19:11:31.944Z,2.27
2018-09-01T19:14:00.689Z,2.30
2018-09-01T19:16:29.199Z,2.43
2018-09-01T19:18:57.662Z,2.90
2018-09-01T19:21:26.225Z,3.70
2018-09-01T19:23:54.690Z,2.77
2018-09-01T19:26:23.196Z,2.13
2018-09-01T19:28:51.633Z,2.10
2018-09-01T19:31:22.613Z,2.60
2018-09-01T19:33:51.238Z,2.03
2018-09-01T19:36:19.669Z,2.10
2018-09-01T19:38:48.102Z,2.03
2018-09-01T19:41:16.553Z,2.33
2018-09-01T19:43:44.996Z,2.37
2018-09-01T19:46:13.553Z,1.83
2018-09-01T19:48:41.963Z,1.80
2018-09-01T19:51:10.784Z,2.40
2018-09-01T19:53:39.170Z,2.00
2018-09-01T19:56:07.635Z,1.93
2018-09-01T19:58:36.050Z,2.20
2018-09-01T20:01:04.587Z,2.00
2018-09-01T20:03:33.027Z,1.80
2018-09-01T20:06:01.463Z,3.03
2018-09-01T20:08:29.902Z,1.83
2018-09-01T20:10:58.360Z,1.90
2018-09-01T20:13:26.815Z,2.00
2018-09-01T20:15:55.300Z,2.17
2018-09-01T20:18:23.743Z,1.87
2018-09-01T20:20:52.196Z,2.13
2018-09-01T20:23:20.670Z,2.43
2018-09-01T20:25:49.123Z,2.30
2018-09-01T20:28:17.815Z,2.07
2018-09-01T20:30:46.319Z,2.03
2018-09-01T20:33:14.751Z,2.30
2018-09-01T20:35:48.756Z,1.93
2018-09-01T20:38:17.380Z,2.37
2018-09-01T20:40:45.893Z,2.13
2018-09-01T20:43:14.308Z,2.10
2018-09-01T20:45:42.784Z,2.40
2018-09-01T20:48:11.364Z,2.10
2018-09-01T20:50:39.823Z,2.37
2018-09-01T20:53:08.480Z,1.83
2018-09-01T20:55:36.974Z,2.10
2018-09-01T20:58:05.476Z,2.60
2018-09-01T21:00:33.968Z,2.03
2018-09-01T21:03:02.393Z,2.03
2018-09-01T21:05:31.608Z,2.40
2018-09-01T21:08:00.401Z,1.93
2018-09-01T21:10:28.918Z,2.33
2018-09-01T21:12:57.371Z,2.40
2018-09-01T21:15:25.871Z,2.40
2018-09-01T21:17:54.299Z,2.10
2018-09-01T21:20:22.754Z,2.10
2018-09-01T21:22:51.213Z,2.37
2018-09-01T21:25:19.666Z,2.10
2018-09-01T21:27:48.108Z,2.30
2018-09-01T21:30:16.692Z,2.17
2018-09-01T21:32:45.136Z,1.80
2018-09-01T21:35:14.920Z,2.50
2018-09-01T21:37:43.481Z,2.20
2018-09-01T21:40:11.906Z,2.00
2018-09-01T21:42:40.375Z,2.10
2018-09-01T21:45:08.823Z,1.90
2018-09-01T21:47:37.283Z,2.50
2018-09-01T21:50:07.175Z,2.20
2018-09-01T21:52:35.728Z,2.03
2018-09-01T21:55:05.432Z,2.03
2018-09-01T21:57:33.940Z,2.23
2018-09-01T22:00:02.370Z,2.10
2018-09-01T22:02:30.822Z,2.17
2018-09-01T22:05:04.626Z,2.30
2018-09-01T22:07:33.081Z,2.10
2018-09-01T22:10:01.595Z,2.03
2018-09-01T22:12:29.971Z,1.87
2018-09-01T22:14:58.422Z,2.63
2018-09-01T22:17:26.944Z,2.40
2018-09-01T22:19:55.386Z,2.30
2018-09-01T22:22:23.846Z,2.20
2018-09-01T22:24:52.298Z,1.90
2018-09-01T22:27:20.771Z,2.00
2018-09-01T22:29:49.200Z,2.47
2018-09-01T22:32:17.684Z,2.37
2018-09-01T22:34:47.061Z,2.20
2018-09-01T22:37:15.533Z,2.10
2018-09-01T22:39:43.972Z,2.40
2018-09-01T22:42:12.446Z,2.43
2018-09-01T22:44:41.867Z,2.30
2018-09-01T22:47:13.807Z,2.30
2018-09-01T22:49:42.232Z,2.40
2018-09-01T22:52:10.683Z,2.40
2018-09-01T22:54:39.100Z,1.93
2018-09-01T22:57:07.547Z,2.30
2018-09-01T22:59:35.985Z,2.20
2018-09-01T23:02:05.530Z,2.00
2018-09-01T23:04:34.028Z,2.30
2018-09-01T23:07:02.494Z,2.80
2018-09-01T23:09:30.919Z,2.60
2018-09-01T23:11:59.369Z,2.40
2018-09-01T23:14:27.784Z,2.07
2018-09-01T23:16:56.233Z,2.57
2018-09-01T23:19:24.685Z,2.40
2018-09-01T23:21:53.143Z,2.50
2018-09-01T23:24:21.566Z,2.67
2018-09-01T23:26:50.137Z,2.90
2018-09-01T23:29:18.568Z,2.70
2018-09-01T23:31:47.015Z,2.43
2018-09-01T23:34:18.114Z,2.53
2018-09-01T23:36:46.675Z,2.13
2018-09-01T23:39:15.100Z,1.83
2018-09-01T23:41:43.596Z,2.33
2018-09-01T23:44:12.064Z,2.37
2018-09-01T23:46:40.607Z,2.40
2018-09-01T23:49:09.089Z,2.10
2018-09-01T23:51:37.529Z,2.50
2018-09-01T23:54:06.093Z,2.63
2018-09-01T23:56:34.615Z,2.37
2018-09-01T23:59:03.150Z,2.23
